sensor_id;sensor_type;location;lat;lon;timestamp;pressure;altitude;pressure_sealevel;temperature;humidity
21547;BME280;41275;51.912;4.388;2023-03-03T00:02:02;102537.50;;;8.90;51.39
21547;BME280;41275;51.912;4.388;2023-03-03T00:07:23;102532.75;;;8.85;51.90
21547;BME280;41275;51.912;4.388;2023-03-03T00:12:49;102541.00;;;8.82;51.96
21547;BME280;41275;51.912;4.388;2023-03-03T00:18:17;102538.88;;;8.78;51.80
21547;BME280;41275;51.912;4.388;2023-03-03T00:23:42;102542.38;;;8.70;51.49
21547;BME280;41275;51.912;4.388;2023-03-03T00:34:50;102543.56;;;8.59;52.17
21547;BME280;41275;51.912;4.388;2023-03-03T00:40:41;102546.09;;;8.53;51.50
21547;BME280;41275;51.912;4.388;2023-03-03T00:46:03;102553.16;;;8.52;51.90
21547;BME280;41275;51.912;4.388;2023-03-03T00:51:28;102551.69;;;8.50;52.02
21547;BME280;41275;51.912;4.388;2023-03-03T00:56:50;102547.41;;;8.49;52.79
21547;BME280;41275;51.912;4.388;2023-03-03T01:02:11;102542.31;;;8.47;51.88
21547;BME280;41275;51.912;4.388;2023-03-03T01:07:32;102541.81;;;8.44;51.98
21547;BME280;41275;51.912;4.388;2023-03-03T01:12:54;102549.91;;;8.42;52.27
21547;BME280;41275;51.912;4.388;2023-03-03T01:18:15;102544.97;;;8.39;52.73
21547;BME280;41275;51.912;4.388;2023-03-03T01:23:37;102535.72;;;8.35;52.69
21547;BME280;41275;51.912;4.388;2023-03-03T01:28:58;102546.78;;;8.39;53.03
21547;BME280;41275;51.912;4.388;2023-03-03T01:34:19;102538.16;;;8.36;52.82
21547;BME280;41275;51.912;4.388;2023-03-03T01:39:41;102544.16;;;8.39;52.59
21547;BME280;41275;51.912;4.388;2023-03-03T01:56:04;102554.38;;;8.33;52.96
21547;BME280;41275;51.912;4.388;2023-03-03T02:01:28;102550.72;;;8.34;52.84
21547;BME280;41275;51.912;4.388;2023-03-03T02:06:58;102550.72;;;8.34;53.67
21547;BME280;41275;51.912;4.388;2023-03-03T02:12:25;102546.97;;;8.37;53.51
21547;BME280;41275;51.912;4.388;2023-03-03T02:17:53;102540.00;;;8.36;53.00
21547;BME280;41275;51.912;4.388;2023-03-03T02:29:09;102542.81;;;8.34;53.13
21547;BME280;41275;51.912;4.388;2023-03-03T02:34:30;102540.16;;;8.34;53.33
21547;BME280;41275;51.912;4.388;2023-03-03T02:39:51;102531.78;;;8.31;53.57
21547;BME280;41275;51.912;4.388;2023-03-03T02:45:12;102537.03;;;8.31;52.98
21547;BME280;41275;51.912;4.388;2023-03-03T02:50:33;102537.69;;;8.33;53.47
21547;BME280;41275;51.912;4.388;2023-03-03T02:55:55;102534.41;;;8.31;53.18
21547;BME280;41275;51.912;4.388;2023-03-03T03:01:16;102532.78;;;8.30;53.33
21547;BME280;41275;51.912;4.388;2023-03-03T03:06:38;102541.50;;;8.30;53.44
21547;BME280;41275;51.912;4.388;2023-03-03T03:11:59;102533.28;;;8.25;53.12
21547;BME280;41275;51.912;4.388;2023-03-03T03:17:22;102538.22;;;8.20;53.08
21547;BME280;41275;51.912;4.388;2023-03-03T03:22:43;102546.81;;;8.22;53.35
21547;BME280;41275;51.912;4.388;2023-03-03T03:28:04;102547.09;;;8.27;53.35
21547;BME280;41275;51.912;4.388;2023-03-03T03:33:25;102550.88;;;8.49;53.58
21547;BME280;41275;51.912;4.388;2023-03-03T03:38:48;102553.56;;;8.72;53.33
21547;BME280;41275;51.912;4.388;2023-03-03T03:44:09;102552.81;;;8.95;52.86
21547;BME280;41275;51.912;4.388;2023-03-03T03:49:30;102557.19;;;9.10;52.71
21547;BME280;41275;51.912;4.388;2023-03-03T03:54:51;102557.03;;;9.12;52.67
21547;BME280;41275;51.912;4.388;2023-03-03T04:00:13;102565.78;;;9.13;52.92
21547;BME280;41275;51.912;4.388;2023-03-03T04:05:34;102558.28;;;9.24;52.90
21547;BME280;41275;51.912;4.388;2023-03-03T04:10:55;102559.56;;;9.28;52.56
21547;BME280;41275;51.912;4.388;2023-03-03T04:16:16;102563.38;;;9.26;52.47
21547;BME280;41275;51.912;4.388;2023-03-03T04:21:38;102562.25;;;9.20;52.64
21547;BME280;41275;51.912;4.388;2023-03-03T04:26:59;102563.38;;;9.26;52.91
21547;BME280;41275;51.912;4.388;2023-03-03T04:32:20;102564.19;;;9.26;53.03
21547;BME280;41275;51.912;4.388;2023-03-03T04:37:42;102566.34;;;9.23;52.95
21547;BME280;41275;51.912;4.388;2023-03-03T04:43:03;102559.84;;;9.33;52.59
21547;BME280;41275;51.912;4.388;2023-03-03T04:48:24;102573.53;;;9.37;53.04
21547;BME280;41275;51.912;4.388;2023-03-03T04:53:45;102568.25;;;9.37;52.51
21547;BME280;41275;51.912;4.388;2023-03-03T04:59:07;102569.25;;;9.36;52.63
21547;BME280;41275;51.912;4.388;2023-03-03T05:04:28;102580.31;;;9.40;52.91
21547;BME280;41275;51.912;4.388;2023-03-03T05:09:49;102579.88;;;9.51;52.73
21547;BME280;41275;51.912;4.388;2023-03-03T05:15:11;102580.88;;;9.50;53.31
21547;BME280;41275;51.912;4.388;2023-03-03T05:20:32;102586.63;;;9.53;53.33
21547;BME280;41275;51.912;4.388;2023-03-03T05:25:53;102584.66;;;9.55;53.14
21547;BME280;41275;51.912;4.388;2023-03-03T05:31:14;102569.69;;;9.48;52.98
21547;BME280;41275;51.912;4.388;2023-03-03T05:36:36;102574.44;;;9.52;52.79
21547;BME280;41275;51.912;4.388;2023-03-03T05:41:57;102579.00;;;9.58;53.46
21547;BME280;41275;51.912;4.388;2023-03-03T05:47:20;102578.66;;;9.62;53.22
21547;BME280;41275;51.912;4.388;2023-03-03T05:52:41;102581.19;;;9.55;53.35
21547;BME280;41275;51.912;4.388;2023-03-03T05:58:02;102572.59;;;9.53;52.93
21547;BME280;41275;51.912;4.388;2023-03-03T06:03:23;102578.50;;;9.63;52.84
21547;BME280;41275;51.912;4.388;2023-03-03T06:08:45;102589.00;;;9.71;52.69
21547;BME280;41275;51.912;4.388;2023-03-03T06:14:06;102598.75;;;9.71;52.40
21547;BME280;41275;51.912;4.388;2023-03-03T06:19:27;102596.13;;;9.71;52.72
21547;BME280;41275;51.912;4.388;2023-03-03T06:24:48;102600.81;;;9.83;52.79
21547;BME280;41275;51.912;4.388;2023-03-03T06:30:10;102609.84;;;9.89;52.90
21547;BME280;41275;51.912;4.388;2023-03-03T06:35:32;102612.06;;;10.00;52.36
21547;BME280;41275;51.912;4.388;2023-03-03T06:40:54;102614.22;;;9.97;52.47
21547;BME280;41275;51.912;4.388;2023-03-03T06:46:15;102612.13;;;9.92;52.92
21547;BME280;41275;51.912;4.388;2023-03-03T06:51:38;102636.22;;;9.97;52.07
21547;BME280;41275;51.912;4.388;2023-03-03T06:57:16;102635.66;;;10.02;52.86
21547;BME280;41275;51.912;4.388;2023-03-03T07:02:37;102637.06;;;10.13;52.74
21547;BME280;41275;51.912;4.388;2023-03-03T07:07:59;102646.50;;;10.15;52.25
21547;BME280;41275;51.912;4.388;2023-03-03T07:13:25;102641.13;;;10.23;52.29
21547;BME280;41275;51.912;4.388;2023-03-03T07:18:53;102652.41;;;10.40;52.54
21547;BME280;41275;51.912;4.388;2023-03-03T07:29:36;102653.50;;;10.31;52.03
21547;BME280;41275;51.912;4.388;2023-03-03T07:35:01;102653.06;;;10.19;52.18
21547;BME280;41275;51.912;4.388;2023-03-03T07:46:13;102661.47;;;10.23;51.84
21547;BME280;41275;51.912;4.388;2023-03-03T07:51:38;102668.00;;;10.35;52.14
21547;BME280;41275;51.912;4.388;2023-03-03T08:02:40;102686.13;;;10.76;51.99
21547;BME280;41275;51.912;4.388;2023-03-03T08:18:57;102694.72;;;11.07;51.10
21547;BME280;41275;51.912;4.388;2023-03-03T08:24:22;102711.16;;;11.18;50.85
21547;BME280;41275;51.912;4.388;2023-03-03T08:29:43;102714.97;;;11.30;50.64
21547;BME280;41275;51.912;4.388;2023-03-03T08:35:04;102718.28;;;11.32;50.59
21547;BME280;41275;51.912;4.388;2023-03-03T08:40:26;102723.38;;;11.48;50.30
21547;BME280;41275;51.912;4.388;2023-03-03T08:45:48;102728.47;;;11.65;50.04
21547;BME280;41275;51.912;4.388;2023-03-03T08:51:10;102730.19;;;11.72;49.74
21547;BME280;41275;51.912;4.388;2023-03-03T08:56:31;102731.97;;;11.87;49.61
21547;BME280;41275;51.912;4.388;2023-03-03T09:01:52;102734.97;;;11.98;49.61
21547;BME280;41275;51.912;4.388;2023-03-03T09:07:13;102729.16;;;12.10;49.04
21547;BME280;41275;51.912;4.388;2023-03-03T09:12:43;102734.16;;;12.19;48.86
21547;BME280;41275;51.912;4.388;2023-03-03T09:18:26;102734.09;;;12.62;48.21
21547;BME280;41275;51.912;4.388;2023-03-03T09:23:56;102728.59;;;12.64;48.33
21547;BME280;41275;51.912;4.388;2023-03-03T09:29:23;102735.66;;;12.85;47.51
21547;BME280;41275;51.912;4.388;2023-03-03T09:34:45;102736.81;;;13.03;47.39
21547;BME280;41275;51.912;4.388;2023-03-03T09:40:38;102737.59;;;13.25;47.35
21547;BME280;41275;51.912;4.388;2023-03-03T09:46:39;102725.63;;;13.15;46.94
21547;BME280;41275;51.912;4.388;2023-03-03T10:03:38;102745.25;;;14.23;45.07
21547;BME280;41275;51.912;4.388;2023-03-03T10:09:12;102745.44;;;14.35;44.44
21547;BME280;41275;51.912;4.388;2023-03-03T10:14:53;102739.91;;;14.43;44.09
21547;BME280;41275;51.912;4.388;2023-03-03T10:26:09;102740.31;;;14.73;42.97
21547;BME280;41275;51.912;4.388;2023-03-03T10:49:50;102737.66;;;15.89;40.58
21547;BME280;41275;51.912;4.388;2023-03-03T11:00:56;102746.00;;;16.31;39.63
21547;BME280;41275;51.912;4.388;2023-03-03T11:06:25;102735.97;;;16.52;39.92
21547;BME280;41275;51.912;4.388;2023-03-03T11:12:02;102740.13;;;16.48;38.87
21547;BME280;41275;51.912;4.388;2023-03-03T11:39:37;102723.06;;;16.24;37.38
21547;BME280;41275;51.912;4.388;2023-03-03T11:45:17;102715.78;;;16.31;36.88
21547;BME280;41275;51.912;4.388;2023-03-03T11:56:33;102713.72;;;16.08;36.89
21547;BME280;41275;51.912;4.388;2023-03-03T12:01:59;102705.56;;;16.28;36.44
21547;BME280;41275;51.912;4.388;2023-03-03T12:13:05;102705.16;;;16.24;35.60
21547;BME280;41275;51.912;4.388;2023-03-03T12:18:58;102701.28;;;16.20;36.25
21547;BME280;41275;51.912;4.388;2023-03-03T12:24:41;102708.38;;;16.33;36.34
21547;BME280;41275;51.912;4.388;2023-03-03T12:41:39;102680.28;;;15.99;37.02
21547;BME280;41275;51.912;4.388;2023-03-03T12:47:15;102684.13;;;16.09;36.90
21547;BME280;41275;51.912;4.388;2023-03-03T12:53:11;102675.72;;;16.06;36.07
21547;BME280;41275;51.912;4.388;2023-03-03T12:58:51;102688.84;;;17.31;35.43
21547;BME280;41275;51.912;4.388;2023-03-03T13:15:48;102672.97;;;19.35;30.77
21547;BME280;41275;51.912;4.388;2023-03-03T13:21:34;102674.06;;;21.67;28.19
21547;BME280;41275;51.912;4.388;2023-03-03T13:27:07;102672.78;;;22.44;25.97
21547;BME280;41275;51.912;4.388;2023-03-03T13:32:45;102668.34;;;20.66;27.72
21547;BME280;41275;51.912;4.388;2023-03-03T13:38:33;102678.97;;;18.74;30.15
21547;BME280;41275;51.912;4.388;2023-03-03T13:55:45;102670.44;;;17.53;31.95
21547;BME280;41275;51.912;4.388;2023-03-03T14:01:22;102664.25;;;17.22;32.30
21547;BME280;41275;51.912;4.388;2023-03-03T14:06:54;102668.13;;;16.71;32.79
21547;BME280;41275;51.912;4.388;2023-03-03T14:24:19;102667.81;;;16.61;32.51
21547;BME280;41275;51.912;4.388;2023-03-03T14:29:41;102656.69;;;16.64;32.65
21547;BME280;41275;51.912;4.388;2023-03-03T14:35:14;102661.63;;;16.42;32.77
21547;BME280;41275;51.912;4.388;2023-03-03T14:40:40;102657.28;;;16.48;32.65
21547;BME280;41275;51.912;4.388;2023-03-03T14:51:48;102658.66;;;16.07;33.08
21547;BME280;41275;51.912;4.388;2023-03-03T15:08:14;102651.56;;;15.69;34.20
21547;BME280;41275;51.912;4.388;2023-03-03T15:13:36;102646.75;;;15.46;34.91
21547;BME280;41275;51.912;4.388;2023-03-03T15:30:24;102633.19;;;15.09;35.90
21547;BME280;41275;51.912;4.388;2023-03-03T15:36:01;102629.38;;;15.30;35.33
21547;BME280;41275;51.912;4.388;2023-03-03T15:41:39;102632.72;;;15.19;35.32
21547;BME280;41275;51.912;4.388;2023-03-03T15:53:04;102628.13;;;14.94;35.42
21547;BME280;41275;51.912;4.388;2023-03-03T15:58:39;102614.56;;;14.96;35.96
21547;BME280;41275;51.912;4.388;2023-03-03T16:04:15;102619.31;;;14.87;35.69
21547;BME280;41275;51.912;4.388;2023-03-03T16:15:40;102628.22;;;14.41;36.08
21547;BME280;41275;51.912;4.388;2023-03-03T16:33:01;102624.38;;;14.31;36.76
21547;BME280;41275;51.912;4.388;2023-03-03T16:38:39;102628.84;;;14.37;36.87
21547;BME280;41275;51.912;4.388;2023-03-03T16:55:27;102636.47;;;14.00;37.50
21547;BME280;41275;51.912;4.388;2023-03-03T17:06:20;102653.03;;;13.82;36.93
21547;BME280;41275;51.912;4.388;2023-03-03T17:17:41;102656.03;;;13.46;36.90
21547;BME280;41275;51.912;4.388;2023-03-03T17:45:53;102681.75;;;13.25;37.56
21547;BME280;41275;51.912;4.388;2023-03-03T17:51:30;102678.69;;;13.35;37.61
21547;BME280;41275;51.912;4.388;2023-03-03T18:08:48;102691.50;;;13.60;37.66
21547;BME280;41275;51.912;4.388;2023-03-03T18:20:45;102691.31;;;13.68;37.98
21547;BME280;41275;51.912;4.388;2023-03-03T18:32:17;102699.59;;;13.38;38.46
21547;BME280;41275;51.912;4.388;2023-03-03T18:37:41;102698.75;;;13.31;37.92
21547;BME280;41275;51.912;4.388;2023-03-03T18:49:09;102704.97;;;13.10;38.58
21547;BME280;41275;51.912;4.388;2023-03-03T18:54:38;102708.22;;;13.12;38.86
21547;BME280;41275;51.912;4.388;2023-03-03T19:00:13;102709.69;;;13.15;38.54
21547;BME280;41275;51.912;4.388;2023-03-03T19:05:46;102716.50;;;13.24;38.83
21547;BME280;41275;51.912;4.388;2023-03-03T19:16:56;102720.81;;;13.32;39.22
21547;BME280;41275;51.912;4.388;2023-03-03T19:22:24;102716.66;;;13.22;38.96
21547;BME280;41275;51.912;4.388;2023-03-03T19:27:54;102717.06;;;13.19;39.02
21547;BME280;41275;51.912;4.388;2023-03-03T19:39:27;102709.16;;;13.26;39.39
21547;BME280;41275;51.912;4.388;2023-03-03T19:45:13;102717.94;;;13.26;39.51
21547;BME280;41275;51.912;4.388;2023-03-03T20:02:11;102714.38;;;13.13;39.93
21547;BME280;41275;51.912;4.388;2023-03-03T20:07:54;102721.00;;;13.23;39.58
21547;BME280;41275;51.912;4.388;2023-03-03T20:20:03;102733.94;;;13.33;39.74
21547;BME280;41275;51.912;4.388;2023-03-03T20:25:24;102737.47;;;13.40;39.65
21547;BME280;41275;51.912;4.388;2023-03-03T20:31:05;102736.59;;;13.33;39.89
21547;BME280;41275;51.912;4.388;2023-03-03T20:48:03;102749.50;;;13.36;40.00
21547;BME280;41275;51.912;4.388;2023-03-03T20:59:29;102751.56;;;13.41;40.11
21547;BME280;41275;51.912;4.388;2023-03-03T21:05:12;102755.88;;;13.42;40.22
21547;BME280;41275;51.912;4.388;2023-03-03T21:10:35;102746.47;;;13.46;40.15
21547;BME280;41275;51.912;4.388;2023-03-03T21:16:01;102747.50;;;13.51;40.28
21547;BME280;41275;51.912;4.388;2023-03-03T21:21:25;102737.72;;;13.59;40.45
21547;BME280;41275;51.912;4.388;2023-03-03T21:26:56;102741.41;;;13.58;40.24
21547;BME280;41275;51.912;4.388;2023-03-03T21:32:34;102743.84;;;13.59;40.37
21547;BME280;41275;51.912;4.388;2023-03-03T21:37:56;102734.63;;;13.55;40.32
21547;BME280;41275;51.912;4.388;2023-03-03T21:43:38;102734.88;;;13.60;40.60
21547;BME280;41275;51.912;4.388;2023-03-03T21:49:00;102744.31;;;13.69;40.70
21547;BME280;41275;51.912;4.388;2023-03-03T21:54:25;102743.03;;;13.59;40.41
21547;BME280;41275;51.912;4.388;2023-03-03T21:59:46;102744.06;;;13.58;40.53
21547;BME280;41275;51.912;4.388;2023-03-03T22:05:09;102740.19;;;13.60;40.57
21547;BME280;41275;51.912;4.388;2023-03-03T22:10:30;102735.25;;;13.57;40.82
21547;BME280;41275;51.912;4.388;2023-03-03T22:15:52;102736.91;;;13.58;40.99
21547;BME280;41275;51.912;4.388;2023-03-03T22:21:13;102739.34;;;13.53;40.79
21547;BME280;41275;51.912;4.388;2023-03-03T22:26:34;102739.34;;;13.53;40.92
21547;BME280;41275;51.912;4.388;2023-03-03T22:31:56;102735.88;;;13.53;40.60
21547;BME280;41275;51.912;4.388;2023-03-03T22:37:17;102736.47;;;13.55;40.52
21547;BME280;41275;51.912;4.388;2023-03-03T22:42:38;102735.84;;;13.46;40.95
21547;BME280;41275;51.912;4.388;2023-03-03T22:47:59;102742.78;;;13.47;40.83
21547;BME280;41275;51.912;4.388;2023-03-03T22:53:21;102739.31;;;13.46;40.78
21547;BME280;41275;51.912;4.388;2023-03-03T22:58:43;102733.13;;;13.33;40.66
21547;BME280;41275;51.912;4.388;2023-03-03T23:04:04;102734.59;;;13.42;40.88
21547;BME280;41275;51.912;4.388;2023-03-03T23:09:25;102736.81;;;13.38;41.07
21547;BME280;41275;51.912;4.388;2023-03-03T23:14:46;102741.31;;;13.38;40.77
21547;BME280;41275;51.912;4.388;2023-03-03T23:20:12;102737.63;;;13.39;40.67
21547;BME280;41275;51.912;4.388;2023-03-03T23:25:34;102735.53;;;13.27;40.84
21547;BME280;41275;51.912;4.388;2023-03-03T23:30:55;102742.91;;;13.25;40.92
21547;BME280;41275;51.912;4.388;2023-03-03T23:36:16;102739.44;;;13.25;41.24
21547;BME280;41275;51.912;4.388;2023-03-03T23:41:38;102742.91;;;13.25;41.17
21547;BME280;41275;51.912;4.388;2023-03-03T23:46:59;102746.50;;;13.18;41.05
21547;BME280;41275;51.912;4.388;2023-03-03T23:52:20;102732.59;;;13.16;41.28
21547;BME280;41275;51.912;4.388;2023-03-03T23:57:41;102737.72;;;13.17;41.40
